Time;durP1;ratioP1;P1;durP2;ratioP2;P2;SDS_P1;SDS_P2;PMS_P1;PMS_P2;Temp;Humidity;BMP_temperature;BMP_pressure;BME280_temperature;BME280_humidity;BME280_pressure;Samples;Min_cycle;Max_cycle;Signal;HPM_P1;HPM_P2
2022/12/30 00:01:38;;;;;;;14.27;8.88;;;5.40;60.70;;;;;;6056658;23;115219;-81
2022/12/30 00:04:05;;;;;;;15.13;9.60;;;5.40;60.70;;;;;;6059157;23;114415;-80
2022/12/30 00:06:32;;;;;;;15.70;9.13;;;5.40;60.70;;;;;;6034976;23;114601;-82
2022/12/30 00:09:00;;;;;;;16.40;9.25;;;5.40;60.80;;;;;;6083918;23;115207;-81
2022/12/30 00:11:32;;;;;;;18.05;9.23;;;5.40;60.80;;;;;;6083954;23;115034;-81
2022/12/30 00:34:34;;;;;;;16.08;9.23;;;5.40;61.00;;;;;;6020087;23;117509;-82
2022/12/30 00:37:03;;;;;;;16.67;9.18;;;5.40;60.90;;;;;;6041509;23;114390;-81
2022/12/30 00:39:30;;;;;;;15.45;9.43;;;5.40;61.00;;;;;;6064980;23;114383;-81
2022/12/30 00:44:43;;;;;;;15.52;8.85;;;5.30;60.90;;;;;;6113625;23;114780;-81
2022/12/30 00:47:11;;;;;;;13.88;8.52;;;5.40;60.90;;;;;;6088740;23;114640;-82
2022/12/30 00:57:59;;;;;;;18.02;9.68;;;5.40;61.00;;;;;;6114397;23;114228;-83
2022/12/30 01:00:26;;;;;;;13.52;8.82;;;5.40;61.00;;;;;;6088761;23;116339;-83
2022/12/30 01:02:53;;;;;;;14.70;9.25;;;5.40;60.90;;;;;;6111964;23;115030;-83
2022/12/30 01:05:21;;;;;;;14.98;9.00;;;5.40;61.00;;;;;;6063203;23;115189;-82
2022/12/30 01:07:48;;;;;;;16.02;9.25;;;5.50;61.00;;;;;;6114468;23;114485;-83
2022/12/30 01:10:15;;;;;;;13.73;8.65;;;5.50;60.90;;;;;;6040149;23;114463;-83
2022/12/30 01:12:43;;;;;;;14.23;9.23;;;5.50;60.80;;;;;;6087517;23;115058;-83
2022/12/30 01:15:10;;;;;;;15.95;9.45;;;5.50;60.80;;;;;;6087433;23;114418;-82
2022/12/30 01:17:37;;;;;;;13.93;9.50;;;5.50;60.80;;;;;;6087966;23;114346;-83
2022/12/30 01:20:09;;;;;;;15.25;9.25;;;5.50;60.80;;;;;;6088517;23;114597;-83
2022/12/30 01:22:36;;;;;;;12.55;8.60;;;5.50;60.80;;;;;;6112782;23;115161;-83
2022/12/30 01:25:03;;;;;;;15.25;8.77;;;5.50;60.90;;;;;;6086878;23;115741;-83
2022/12/30 01:27:32;;;;;;;14.88;9.00;;;5.50;60.80;;;;;;6114013;23;114205;-82
2022/12/30 01:29:59;;;;;;;14.82;9.13;;;5.50;60.80;;;;;;6088060;23;114515;-83
2022/12/30 01:32:28;;;;;;;13.55;8.80;;;5.50;60.80;;;;;;6062532;23;115059;-83
2022/12/30 01:34:56;;;;;;;16.33;9.27;;;5.50;60.80;;;;;;6112342;23;114629;-83
2022/12/30 01:37:24;;;;;;;13.63;8.73;;;5.50;60.80;;;;;;6087863;23;115627;-83
2022/12/30 01:39:52;;;;;;;15.85;8.20;;;5.50;60.80;;;;;;6088493;23;114808;-83
2022/12/30 01:42:21;;;;;;;13.73;8.23;;;5.50;60.80;;;;;;6086965;23;115669;-83
2022/12/30 01:44:52;;;;;;;15.25;8.50;;;5.50;60.80;;;;;;6086812;23;114750;-82
2022/12/30 01:47:32;;;;;;;12.70;7.65;;;5.50;60.80;;;;;;6063436;23;114687;-82
2022/12/30 01:50:10;;;;;;;13.95;8.30;;;5.50;60.80;;;;;;6040332;23;114681;-82
2022/12/30 01:52:41;;;;;;;14.50;8.48;;;5.60;60.90;;;;;;6086273;23;115463;-82
2022/12/30 01:55:11;;;;;;;13.23;8.40;;;5.50;60.80;;;;;;6063073;23;114479;-82
2022/12/30 01:57:41;;;;;;;15.55;8.90;;;5.60;60.90;;;;;;6064439;23;114379;-82
2022/12/30 02:00:10;;;;;;;14.98;8.82;;;5.60;60.80;;;;;;6064377;23;115791;-83
2022/12/30 02:02:40;;;;;;;12.45;7.90;;;5.60;60.70;;;;;;6112718;23;116482;-82
2022/12/30 02:05:08;;;;;;;12.60;7.80;;;5.60;60.70;;;;;;6087156;23;116382;-82
2022/12/30 02:07:44;;;;;;;12.38;7.57;;;5.60;60.70;;;;;;6087966;23;114395;-82
2022/12/30 02:10:11;;;;;;;13.63;8.20;;;5.70;60.60;;;;;;6040588;23;115142;-82
2022/12/30 02:12:38;;;;;;;13.20;7.72;;;5.70;60.50;;;;;;6062814;23;115024;-82
2022/12/30 02:15:06;;;;;;;13.10;8.00;;;5.70;60.50;;;;;;6087830;23;114571;-82
2022/12/30 02:17:44;;;;;;;13.77;8.10;;;5.70;60.50;;;;;;6064794;23;114486;-82
2022/12/30 02:20:47;;;;;;;12.13;7.63;;;5.70;60.40;;;;;;6115151;23;114267;-82
2022/12/30 02:23:59;;;;;;;14.20;8.02;;;5.80;60.40;;;;;;6063188;23;115088;-82
2022/12/30 02:27:00;;;;;;;12.20;7.90;;;5.80;60.40;;;;;;6072051;23;114615;-82
2022/12/30 02:29:42;;;;;;;15.60;8.73;;;5.80;60.50;;;;;;6114936;23;114409;-83
2022/12/30 02:32:35;;;;;;;14.98;8.50;;;5.80;60.70;;;;;;6115384;23;114601;-80
2022/12/30 02:35:41;;;;;;;16.05;9.00;;;5.80;60.70;;;;;;6054298;23;115064;-82
2022/12/30 02:38:39;;;;;;;16.63;9.88;;;5.90;60.80;;;;;;6081746;23;116403;-82
2022/12/30 02:44:36;;;;;;;14.88;8.90;;;5.90;60.80;;;;;;6024838;23;114740;-82
2022/12/30 02:47:24;;;;;;;13.70;8.23;;;5.90;60.70;;;;;;6016282;23;115141;-83
2022/12/30 02:52:45;;;;;;;12.82;8.23;;;5.90;60.70;;;;;;6063642;23;114668;-83
2022/12/30 02:55:14;;;;;;;13.65;8.00;;;5.80;60.70;;;;;;6011778;23;114738;-83
2022/12/30 02:57:41;;;;;;;11.80;7.28;;;5.90;60.70;;;;;;6034755;23;115135;-83
2022/12/30 03:03:59;;;;;;;14.73;8.00;;;5.90;60.60;;;;;;6063628;23;115438;-83
2022/12/30 03:06:30;;;;;;;12.20;7.97;;;5.80;60.70;;;;;;6067300;23;114578;-83
2022/12/30 03:09:22;;;;;;;12.23;8.43;;;5.90;60.70;;;;;;6057877;23;115782;-83
2022/12/30 03:12:14;;;;;;;14.52;8.95;;;5.90;60.70;;;;;;6038315;23;115930;-83
2022/12/30 03:15:00;;;;;;;13.95;8.75;;;5.80;60.80;;;;;;6036545;23;114313;-83
2022/12/30 03:17:33;;;;;;;13.55;8.13;;;5.80;60.90;;;;;;6062298;23;114446;-83
2022/12/30 03:20:04;;;;;;;13.88;9.18;;;5.80;60.90;;;;;;6011560;23;115065;-82
2022/12/30 03:28:06;;;;;;;19.20;11.85;;;5.90;61.20;;;;;;6063798;23;115306;-83
2022/12/30 03:30:37;;;;;;;19.40;10.95;;;5.90;61.30;;;;;;5986799;23;115189;-83
2022/12/30 03:33:04;;;;;;;17.48;11.30;;;5.90;61.40;;;;;;6035322;23;114523;-83
2022/12/30 03:35:31;;;;;;;18.30;9.90;;;5.90;61.40;;;;;;6073483;23;114230;-82
2022/12/30 03:37:58;;;;;;;17.88;10.05;;;5.90;61.40;;;;;;6064757;23;114577;-82
2022/12/30 03:40:34;;;;;;;15.18;9.52;;;5.90;61.40;;;;;;6038736;23;115498;-82
2022/12/30 03:43:02;;;;;;;17.17;9.50;;;5.90;61.40;;;;;;6016745;23;114618;-83
2022/12/30 03:45:29;;;;;;;13.85;9.68;;;5.90;61.50;;;;;;6039956;23;116015;-82
2022/12/30 03:47:56;;;;;;;16.35;9.85;;;6.00;61.50;;;;;;6064646;23;114494;-82
2022/12/30 03:50:23;;;;;;;14.45;10.35;;;6.00;61.50;;;;;;6087427;23;115169;-82
2022/12/30 03:52:51;;;;;;;14.88;9.52;;;5.90;61.50;;;;;;6113580;23;115920;-83
2022/12/30 03:55:18;;;;;;;17.17;9.73;;;6.00;61.40;;;;;;6088697;23;114293;-82
2022/12/30 03:57:45;;;;;;;14.82;9.75;;;6.00;61.40;;;;;;6115195;23;114622;-82
2022/12/30 04:00:13;;;;;;;16.13;9.63;;;6.00;61.50;;;;;;6087228;23;115108;-82
2022/12/30 04:02:40;;;;;;;14.48;9.57;;;6.00;61.40;;;;;;6113683;23;114924;-82
2022/12/30 04:05:08;;;;;;;16.38;10.63;;;5.90;61.40;;;;;;6063605;23;115991;-82
2022/12/30 04:07:35;;;;;;;14.38;9.90;;;5.90;61.50;;;;;;6040365;23;114307;-82
2022/12/30 04:10:03;;;;;;;16.77;10.05;;;5.90;61.60;;;;;;6087285;23;115075;-81
2022/12/30 04:12:30;;;;;;;15.45;9.40;;;5.90;61.50;;;;;;6087150;23;114683;-83
2022/12/30 04:14:57;;;;;;;14.38;8.82;;;5.90;61.60;;;;;;6064245;23;114358;-83
2022/12/30 04:17:25;;;;;;;15.25;8.73;;;5.90;61.50;;;;;;6089163;23;115703;-83
2022/12/30 04:19:52;;;;;;;13.48;8.50;;;5.80;61.60;;;;;;6113185;23;114977;-83
2022/12/30 04:22:19;;;;;;;13.40;8.63;;;5.90;61.40;;;;;;6113545;23;114703;-82
2022/12/30 04:24:46;;;;;;;14.75;9.02;;;5.80;61.30;;;;;;6114420;23;114378;-82
2022/12/30 04:27:17;;;;;;;13.45;9.43;;;5.80;61.30;;;;;;6089249;23;116413;-81
2022/12/30 04:29:44;;;;;;;12.98;8.40;;;5.80;61.40;;;;;;6113686;23;114927;-82
2022/12/30 04:32:11;;;;;;;11.57;8.50;;;5.80;61.30;;;;;;6062833;23;114760;-82
2022/12/30 04:34:38;;;;;;;14.55;8.80;;;5.80;61.40;;;;;;6015200;23;114719;-83
2022/12/30 04:37:06;;;;;;;14.88;9.65;;;5.80;61.40;;;;;;6114869;23;114634;-83
2022/12/30 04:39:33;;;;;;;17.05;10.48;;;5.70;61.30;;;;;;6114505;23;115741;-82
2022/12/30 04:42:00;;;;;;;16.30;10.68;;;5.70;61.40;;;;;;6063838;23;116136;-81
2022/12/30 04:44:27;;;;;;;22.10;12.57;;;5.70;61.30;;;;;;6089411;23;114411;-82
2022/12/30 04:46:54;;;;;;;17.00;11.63;;;5.70;61.30;;;;;;6089519;23;114635;-82
2022/12/30 04:49:22;;;;;;;19.52;13.02;;;5.70;61.30;;;;;;6063640;23;115053;-81
2022/12/30 04:51:51;;;;;;;19.25;12.98;;;5.70;61.40;;;;;;6088450;23;115785;-82
2022/12/30 04:54:18;;;;;;;17.58;11.73;;;5.70;61.40;;;;;;6116350;23;114223;-82
2022/12/30 04:56:45;;;;;;;19.75;12.13;;;5.70;61.40;;;;;;6042390;23;114442;-83
2022/12/30 04:59:12;;;;;;;18.02;12.60;;;5.70;61.50;;;;;;6114700;23;115690;-82
2022/12/30 05:01:40;;;;;;;18.23;12.35;;;5.70;61.60;;;;;;6088847;23;115363;-82
2022/12/30 05:04:15;;;;;;;19.90;13.02;;;5.70;61.60;;;;;;6068721;23;115800;-82
2022/12/30 05:06:42;;;;;;;22.00;13.65;;;5.70;61.50;;;;;;6090146;23;114448;-82
2022/12/30 05:09:11;;;;;;;20.30;12.25;;;5.70;61.40;;;;;;6089069;23;116198;-82
2022/12/30 05:11:38;;;;;;;22.75;14.60;;;5.70;61.50;;;;;;6088463;23;114605;-83
2022/12/30 05:14:08;;;;;;;23.27;15.10;;;5.70;61.60;;;;;;6090211;23;114232;-83
2022/12/30 05:16:35;;;;;;;21.35;12.77;;;5.60;61.70;;;;;;6090000;23;114600;-83
2022/12/30 05:19:03;;;;;;;19.92;12.90;;;5.60;61.80;;;;;;6063659;23;118586;-83
2022/12/30 05:21:30;;;;;;;19.60;13.50;;;5.60;61.80;;;;;;6088796;23;114525;-83
2022/12/30 05:26:43;;;;;;;20.80;13.73;;;5.60;61.90;;;;;;6115579;23;114379;-83
2022/12/30 05:29:12;;;;;;;18.73;12.82;;;5.50;62.00;;;;;;6088243;23;115017;-84
2022/12/30 05:31:39;;;;;;;21.95;14.30;;;5.50;62.10;;;;;;6088227;23;114670;-83
2022/12/30 05:34:06;;;;;;;23.17;14.32;;;5.50;62.10;;;;;;6114689;23;114565;-83
2022/12/30 05:36:37;;;;;;;20.02;13.35;;;5.50;62.10;;;;;;6084420;23;114520;-83
2022/12/30 05:39:05;;;;;;;20.13;13.82;;;5.40;62.30;;;;;;6081901;23;115191;-84
2022/12/30 05:41:32;;;;;;;20.90;13.13;;;5.40;62.20;;;;;;6082107;23;114697;-82
2022/12/30 05:44:00;;;;;;;21.17;13.60;;;5.40;62.30;;;;;;6085651;23;114282;-83
2022/12/30 05:46:27;;;;;;;21.10;14.45;;;5.40;62.40;;;;;;6084816;23;114337;-83
2022/12/30 05:48:54;;;;;;;20.20;13.20;;;5.40;62.50;;;;;;6085557;23;115076;-82
2022/12/30 05:51:21;;;;;;;21.85;13.57;;;5.40;62.60;;;;;;6036091;23;115817;-82
2022/12/30 05:53:48;;;;;;;21.25;14.05;;;5.40;62.60;;;;;;6086642;23;114280;-83
2022/12/30 05:56:16;;;;;;;23.92;14.32;;;5.40;62.60;;;;;;6085474;23;114321;-83
2022/12/30 05:58:43;;;;;;;21.75;14.10;;;5.40;62.60;;;;;;6084031;23;115040;-83
2022/12/30 06:01:10;;;;;;;21.00;14.80;;;5.40;62.70;;;;;;6085353;23;116587;-83
2022/12/30 06:03:37;;;;;;;28.17;15.13;;;5.40;62.70;;;;;;6086593;23;114615;-83
2022/12/30 06:06:06;;;;;;;21.42;14.77;;;5.40;62.80;;;;;;6084512;23;114669;-83
2022/12/30 06:08:35;;;;;;;19.50;13.20;;;5.40;62.90;;;;;;6083908;23;115010;-82
2022/12/30 06:11:02;;;;;;;20.98;14.32;;;5.40;62.90;;;;;;6084889;23;114494;-82
2022/12/30 06:13:29;;;;;;;20.27;14.10;;;5.50;62.80;;;;;;6060904;23;114432;-83
2022/12/30 06:15:56;;;;;;;21.95;14.48;;;5.50;62.80;;;;;;6086625;23;114394;-82
2022/12/30 06:18:25;;;;;;;20.63;13.20;;;5.40;62.80;;;;;;6083204;23;115052;-82
2022/12/30 06:20:53;;;;;;;21.02;14.00;;;5.40;62.80;;;;;;6083591;23;114590;-82
2022/12/30 06:23:20;;;;;;;23.08;14.15;;;5.50;63.00;;;;;;6085050;23;114655;-82
2022/12/30 06:25:56;;;;;;;20.63;13.88;;;5.50;62.90;;;;;;6085290;23;114359;-83
2022/12/30 06:28:25;;;;;;;22.10;13.95;;;5.50;62.90;;;;;;6083599;23;115705;-80
2022/12/30 06:30:53;;;;;;;22.08;14.38;;;5.50;62.90;;;;;;6084190;23;114609;-84
2022/12/30 06:33:21;;;;;;;21.80;14.48;;;5.40;62.90;;;;;;6083713;23;115457;-81
2022/12/30 06:35:48;;;;;;;22.02;14.57;;;5.40;63.00;;;;;;6083015;23;114604;-82
2022/12/30 06:38:15;;;;;;;19.80;14.10;;;5.40;63.00;;;;;;6082123;23;115212;-82
2022/12/30 06:40:44;;;;;;;21.92;14.50;;;5.40;63.10;;;;;;6034326;23;114757;-83
2022/12/30 06:43:12;;;;;;;22.05;14.25;;;5.40;63.10;;;;;;6083721;23;114265;-84
2022/12/30 06:45:39;;;;;;;25.08;15.48;;;5.40;63.10;;;;;;6085190;23;114531;-83
2022/12/30 06:48:07;;;;;;;23.48;15.52;;;5.40;63.20;;;;;;6083576;23;114997;-83
2022/12/30 06:50:34;;;;;;;23.25;15.40;;;5.40;63.20;;;;;;6033981;23;114847;-83
2022/12/30 06:53:06;;;;;;;24.15;15.75;;;5.40;63.20;;;;;;6084881;23;114876;-82
2022/12/30 06:55:34;;;;;;;22.88;15.13;;;5.40;63.20;;;;;;6059928;23;114628;-81
2022/12/30 06:58:03;;;;;;;22.55;14.85;;;5.40;63.20;;;;;;6083445;23;115015;-82
2022/12/30 07:00:33;;;;;;;24.23;16.10;;;5.40;63.20;;;;;;6083471;23;115195;-82
2022/12/30 07:03:00;;;;;;;22.52;14.23;;;5.40;63.20;;;;;;6087564;23;114374;-82
2022/12/30 07:05:28;;;;;;;25.60;15.75;;;5.40;63.20;;;;;;6086939;23;114491;-82
2022/12/30 07:07:59;;;;;;;22.40;14.32;;;5.50;63.20;;;;;;6083740;23;115119;-83
2022/12/30 07:10:27;;;;;;;20.48;14.13;;;5.50;63.30;;;;;;6083712;23;114659;-82
2022/12/30 07:12:54;;;;;;;22.80;14.13;;;5.50;63.20;;;;;;6085374;23;114302;-83
2022/12/30 07:15:23;;;;;;;21.98;12.93;;;5.50;63.20;;;;;;6085812;23;114211;-82
2022/12/30 07:17:50;;;;;;;20.17;12.75;;;5.60;63.30;;;;;;6083038;23;115123;-81
2022/12/30 07:20:17;;;;;;;20.05;14.20;;;5.50;63.40;;;;;;6084452;23;115908;-81
2022/12/30 07:22:45;;;;;;;20.63;13.23;;;5.60;63.40;;;;;;6079353;23;117455;-80
2022/12/30 07:25:12;;;;;;;21.65;14.45;;;5.70;63.40;;;;;;6060229;23;115952;-82
2022/12/30 07:27:39;;;;;;;21.23;14.10;;;5.60;63.30;;;;;;6084316;23;116276;-83
2022/12/30 07:30:07;;;;;;;23.48;14.88;;;5.70;63.90;;;;;;6083184;23;114653;-82
2022/12/30 07:32:34;;;;;;;23.73;15.15;;;5.70;65.00;;;;;;6084389;23;114562;-81
2022/12/30 07:35:02;;;;;;;24.63;14.52;;;5.80;64.90;;;;;;6083628;23;114471;-84
2022/12/30 07:37:30;;;;;;;21.63;14.68;;;5.80;64.60;;;;;;6082705;23;115084;-81
2022/12/30 07:39:57;;;;;;;20.58;14.35;;;5.90;64.10;;;;;;6057846;23;114709;-81
2022/12/30 07:42:25;;;;;;;22.73;14.90;;;5.90;63.80;;;;;;6083925;23;114391;-81
2022/12/30 07:44:52;;;;;;;22.67;13.15;;;5.90;63.60;;;;;;6086449;23;114299;-81
2022/12/30 07:47:20;;;;;;;23.40;13.95;;;5.90;63.60;;;;;;6082293;23;115047;-82
2022/12/30 07:49:47;;;;;;;23.77;13.95;;;5.90;63.60;;;;;;6082941;23;114771;-81
2022/12/30 07:52:14;;;;;;;20.73;13.65;;;5.90;63.60;;;;;;6083800;23;114745;-82
2022/12/30 07:54:41;;;;;;;22.40;14.27;;;5.90;63.60;;;;;;6085991;23;114474;-81
2022/12/30 07:57:09;;;;;;;24.30;13.90;;;6.00;63.60;;;;;;6083668;23;115043;-82
2022/12/30 07:59:36;;;;;;;20.38;13.13;;;6.00;63.60;;;;;;6082092;23;114648;-82
2022/12/30 08:02:03;;;;;;;25.38;14.38;;;6.00;63.50;;;;;;6084255;23;114533;-82
2022/12/30 08:04:31;;;;;;;21.65;13.95;;;6.00;63.50;;;;;;6058671;23;114410;-81
2022/12/30 08:07:18;;;;;;;25.83;15.80;;;5.90;63.50;;;;;;6082242;23;115138;-82
2022/12/30 08:09:46;;;;;;;22.05;14.50;;;5.90;63.60;;;;;;6081612;23;114685;-82
2022/12/30 08:12:13;;;;;;;20.98;13.30;;;5.90;63.70;;;;;;6083029;23;114341;-80
2022/12/30 08:14:40;;;;;;;22.27;13.52;;;6.00;63.80;;;;;;6059245;23;114470;-81
2022/12/30 08:17:07;;;;;;;22.48;15.18;;;6.00;63.80;;;;;;6083573;23;115025;-80
2022/12/30 08:19:34;;;;;;;24.00;14.63;;;6.00;63.90;;;;;;6057149;23;116345;-81
2022/12/30 08:22:02;;;;;;;26.02;15.65;;;6.00;64.00;;;;;;6082234;23;114315;-82
2022/12/30 08:24:29;;;;;;;24.65;15.82;;;6.00;64.10;;;;;;6083244;23;114374;-82
2022/12/30 08:26:56;;;;;;;22.80;15.30;;;6.00;64.20;;;;;;6056974;23;115308;-81
2022/12/30 08:29:23;;;;;;;23.27;15.02;;;6.00;64.40;;;;;;6057780;23;114571;-82
2022/12/30 08:31:51;;;;;;;23.10;13.73;;;6.10;64.50;;;;;;6082707;23;114304;-82
2022/12/30 08:34:19;;;;;;;23.15;13.07;;;6.10;64.60;;;;;;6083284;23;114635;-81
2022/12/30 08:36:46;;;;;;;24.00;13.18;;;6.10;64.60;;;;;;6081809;23;117217;-81
2022/12/30 08:39:13;;;;;;;29.55;15.52;;;6.20;64.70;;;;;;6081416;23;114718;-82
2022/12/30 08:41:43;;;;;;;29.15;16.30;;;6.20;64.80;;;;;;6082807;23;114454;-82
2022/12/30 08:44:17;;;;;;;30.55;16.27;;;6.20;64.90;;;;;;6084435;23;114258;-82
2022/12/30 08:46:44;;;;;;;27.70;14.52;;;6.20;64.90;;;;;;6057397;23;115100;-82
2022/12/30 08:49:12;;;;;;;24.05;13.60;;;6.30;64.90;;;;;;6057313;23;115001;-82
2022/12/30 08:51:39;;;;;;;19.23;11.88;;;6.30;65.00;;;;;;6084233;23;114296;-82
2022/12/30 08:54:06;;;;;;;23.25;12.80;;;6.30;65.10;;;;;;6082778;23;114587;-82
2022/12/30 08:56:35;;;;;;;19.55;12.38;;;6.40;65.10;;;;;;6083046;23;115057;-82
2022/12/30 08:59:02;;;;;;;19.65;11.90;;;6.40;65.20;;;;;;6032776;23;114673;-81
2022/12/30 09:01:36;;;;;;;23.33;12.70;;;6.40;65.10;;;;;;6058566;23;114387;-82
2022/12/30 09:04:06;;;;;;;20.00;12.32;;;6.40;65.10;;;;;;6084642;23;114490;-81
2022/12/30 09:06:36;;;;;;;22.13;12.73;;;6.40;65.10;;;;;;6081637;23;115327;-82
2022/12/30 09:09:04;;;;;;;20.35;11.75;;;6.50;65.20;;;;;;6081396;23;114631;-83
2022/12/30 09:11:33;;;;;;;19.45;12.60;;;6.50;65.20;;;;;;6082650;23;114358;-82
2022/12/30 09:14:02;;;;;;;20.30;13.50;;;6.60;65.20;;;;;;6058869;23;114767;-81
2022/12/30 09:16:29;;;;;;;20.40;13.20;;;6.60;65.20;;;;;;6032900;23;115606;-81
2022/12/30 09:18:57;;;;;;;20.48;13.60;;;6.70;65.20;;;;;;6081026;23;114664;-81
2022/12/30 09:21:24;;;;;;;25.45;16.13;;;6.70;65.20;;;;;;6083877;23;114699;-81
2022/12/30 09:23:51;;;;;;;24.15;15.25;;;6.70;65.30;;;;;;6062108;23;114401;-82
2022/12/30 09:26:22;;;;;;;27.58;16.90;;;6.80;65.30;;;;;;6084940;23;115545;-81
2022/12/30 09:28:49;;;;;;;29.40;17.38;;;6.80;65.40;;;;;;6082799;23;115343;-81
2022/12/30 09:31:16;;;;;;;30.77;18.90;;;6.90;65.40;;;;;;6085700;23;114522;-82
2022/12/30 09:33:44;;;;;;;34.78;20.60;;;6.90;65.30;;;;;;6084934;23;114301;-82
2022/12/30 09:36:12;;;;;;;28.50;18.60;;;6.80;65.10;;;;;;6106982;23;115043;-83
2022/12/30 09:38:39;;;;;;;30.40;18.52;;;6.80;65.10;;;;;;6086887;23;114729;-82
2022/12/30 09:44:38;;;;;;;27.50;18.58;;;6.90;65.00;;;;;;6095262;23;114690;-83
2022/12/30 09:47:28;;;;;;;30.40;18.58;;;6.80;64.80;;;;;;6086898;23;116463;-82
2022/12/30 09:50:20;;;;;;;31.52;20.92;;;6.80;65.00;;;;;;6086475;23;115655;-83
2022/12/30 09:53:03;;;;;;;36.47;22.02;;;6.80;65.10;;;;;;6087972;23;114382;-84
2022/12/30 09:55:46;;;;;;;26.90;19.77;;;6.80;65.10;;;;;;6086145;23;115903;-82
2022/12/30 09:58:20;;;;;;;28.48;20.30;;;6.80;65.10;;;;;;6066668;23;116318;-83
2022/12/30 10:00:47;;;;;;;32.17;20.73;;;6.80;65.00;;;;;;6015452;23;116771;-84
2022/12/30 10:03:26;;;;;;;31.95;21.13;;;6.90;65.00;;;;;;6087918;23;114576;-83
2022/12/30 10:06:29;;;;;;;34.43;22.40;;;6.90;65.10;;;;;;6113262;23;114527;-83
2022/12/30 10:09:58;;;;;;;32.75;21.85;;;6.90;65.20;;;;;;6086863;23;115197;-84
2022/12/30 10:12:34;;;;;;;34.65;20.98;;;7.00;65.30;;;;;;6007647;23;115202;-84
2022/12/30 10:15:36;;;;;;;29.98;20.75;;;7.00;65.40;;;;;;6057655;23;117488;-82
2022/12/30 10:18:31;;;;;;;25.92;17.40;;;7.10;65.30;;;;;;6088972;23;115409;-82
2022/12/30 10:21:07;;;;;;;;;;;7.10;65.00;;;;;;6112016;23;116397;-84
2022/12/30 10:24:18;;;;;;;23.60;15.57;;;7.10;64.90;;;;;;6086291;23;114931;-86
2022/12/30 10:26:50;;;;;;;26.85;16.15;;;7.20;64.90;;;;;;6087526;23;114327;-83
2022/12/30 10:29:29;;;;;;;25.92;15.57;;;7.20;64.70;;;;;;6038994;23;114736;-84
2022/12/30 10:31:57;;;;;;;24.95;15.43;;;7.30;64.50;;;;;;6111660;23;115053;-83
2022/12/30 10:34:28;;;;;;;19.42;13.65;;;7.30;64.30;;;;;;6063087;23;114633;-84
2022/12/30 10:37:11;;;;;;;23.50;14.18;;;7.40;63.60;;;;;;6064446;23;114861;-84
2022/12/30 10:39:45;;;;;;;23.95;13.85;;;7.50;63.00;;;;;;6041722;23;114513;-84
2022/12/30 10:42:52;;;;;;;23.02;14.45;;;7.50;63.30;;;;;;6038475;23;115922;-83
2022/12/30 10:45:45;;;;;;;23.10;14.35;;;7.60;63.20;;;;;;6087458;23;115206;-81
2022/12/30 10:48:49;;;;;;;22.08;15.48;;;7.60;63.10;;;;;;6088852;23;114522;-83
2022/12/30 10:51:17;;;;;;;23.25;14.27;;;7.60;62.90;;;;;;6095498;23;114603;-82
2022/12/30 10:53:46;;;;;;;24.00;15.60;;;7.60;63.00;;;;;;6087051;23;115086;-83
2022/12/30 10:56:33;;;;;;;20.80;14.15;;;7.60;62.90;;;;;;5990362;23;118257;-83
2022/12/30 10:59:11;;;;;;;19.58;13.95;;;7.60;62.90;;;;;;6064251;23;114374;-83
2022/12/30 11:01:38;;;;;;;26.55;16.52;;;7.60;63.00;;;;;;6040599;23;114718;-82
2022/12/30 11:04:06;;;;;;;26.88;17.17;;;7.60;63.00;;;;;;6038693;23;117899;-83
2022/12/30 11:06:35;;;;;;;27.85;17.48;;;7.60;63.00;;;;;;6062616;23;116121;-84
2022/12/30 11:09:20;;;;;;;30.30;19.13;;;7.70;62.90;;;;;;6015629;23;114593;-83
2022/12/30 11:15:21;;;;;;;28.98;18.33;;;7.80;62.70;;;;;;6047799;23;115152;-83
2022/12/30 11:17:51;;;;;;;26.05;17.80;;;7.90;62.70;;;;;;6063788;23;114374;-84
2022/12/30 11:20:58;;;;;;;29.73;18.15;;;8.00;62.50;;;;;;6015520;23;114553;-84
2022/12/30 11:23:32;;;;;;;27.00;16.27;;;8.10;62.20;;;;;;6064056;23;114572;-83
2022/12/30 11:26:17;;;;;;;27.58;16.08;;;8.10;62.20;;;;;;6061870;23;115525;-84
2022/12/30 11:28:52;;;;;;;31.75;17.00;;;8.20;62.10;;;;;;6061885;23;114625;-84
2022/12/30 11:31:20;;;;;;;27.67;17.02;;;8.20;61.90;;;;;;6062807;23;114456;-85
2022/12/30 11:33:50;;;;;;;26.17;17.15;;;8.30;61.70;;;;;;6063934;23;114647;-84
2022/12/30 11:36:20;;;;;;;24.80;16.45;;;8.30;61.50;;;;;;6057511;23;115881;-84
2022/12/30 11:38:51;;;;;;;21.75;15.73;;;8.30;61.50;;;;;;6057011;23;114597;-84
2022/12/30 11:41:20;;;;;;;24.05;15.35;;;8.30;61.50;;;;;;6057979;23;115751;-85
2022/12/30 11:43:59;;;;;;;23.98;15.73;;;8.30;61.40;;;;;;6084347;23;114623;-84
2022/12/30 11:46:37;;;;;;;22.70;14.55;;;8.30;61.30;;;;;;6082688;23;116377;-82
2022/12/30 11:49:43;;;;;;;23.85;15.38;;;8.30;61.40;;;;;;6056399;23;114591;-84
2022/12/30 11:52:23;;;;;;;24.48;14.98;;;8.30;61.50;;;;;;6051642;23;114654;-84
2022/12/30 11:54:56;;;;;;;19.38;13.75;;;8.40;61.50;;;;;;6082650;23;114393;-83
2022/12/30 11:57:30;;;;;;;19.05;12.88;;;8.30;61.30;;;;;;6081324;23;115309;-83
2022/12/30 12:00:12;;;;;;;20.20;14.65;;;8.40;61.20;;;;;;6081732;23;115421;-84
2022/12/30 12:02:44;;;;;;;20.35;15.15;;;8.40;61.00;;;;;;6082483;23;114448;-83
2022/12/30 12:05:20;;;;;;;23.15;14.40;;;8.30;61.10;;;;;;6059580;23;114719;-83
2022/12/30 12:07:49;;;;;;;23.65;16.00;;;8.30;61.10;;;;;;6082099;23;115024;-84
2022/12/30 12:10:34;;;;;;;21.27;15.30;;;8.30;61.20;;;;;;6032968;23;115456;-82
2022/12/30 12:13:06;;;;;;;22.50;15.98;;;8.30;61.10;;;;;;6081588;23;114318;-84
2022/12/30 12:15:55;;;;;;;25.08;16.20;;;8.30;61.10;;;;;;6057211;23;114622;-83
2022/12/30 12:18:41;;;;;;;23.42;16.08;;;8.30;60.90;;;;;;6079547;23;114994;-83
2022/12/30 12:21:26;;;;;;;19.63;14.90;;;8.20;61.00;;;;;;6081324;23;114575;-83
2022/12/30 12:24:05;;;;;;;22.55;16.20;;;8.20;61.00;;;;;;6032700;23;115240;-84
2022/12/30 12:26:50;;;;;;;22.80;16.02;;;8.20;61.00;;;;;;6082256;23;114803;-83
2022/12/30 12:29:17;;;;;;;;;;;8.20;61.00;;;;;;6057056;23;118349;-83
2022/12/30 12:32:17;;;;;;;24.13;16.20;;;8.00;61.20;;;;;;6053133;23;116498;-83
2022/12/30 12:35:41;;;;;;;23.50;16.33;;;8.10;61.40;;;;;;6078911;23;114541;-85
2022/12/30 12:38:53;;;;;;;22.40;15.68;;;8.00;61.50;;;;;;6082599;23;115461;-84
2022/12/30 12:41:41;;;;;;;23.48;15.70;;;8.00;61.60;;;;;;6054431;23;117601;-83
2022/12/30 12:44:47;;;;;;;24.00;16.27;;;8.00;61.70;;;;;;6032968;23;118706;-83
2022/12/30 12:47:52;;;;;;;25.67;17.38;;;8.00;61.50;;;;;;6081324;23;116331;-83
2022/12/30 12:50:38;;;;;;;;;;;7.90;61.60;;;;;;6070900;23;115111;-83
2022/12/30 12:53:34;;;;;;;24.08;16.23;;;7.80;61.70;;;;;;6079117;23;114966;-83
2022/12/30 12:56:07;;;;;;;22.10;15.43;;;7.70;62.00;;;;;;6078111;23;116701;-83
2022/12/30 12:59:24;;;;;;;23.65;16.45;;;7.70;62.00;;;;;;6081903;23;114399;-83
2022/12/30 13:02:20;;;;;;;23.48;16.10;;;7.80;62.10;;;;;;6081115;23;114593;-82
2022/12/30 13:05:31;;;;;;;22.20;15.05;;;7.70;62.10;;;;;;6079270;23;116139;-81
2022/12/30 13:08:38;;;;;;;24.58;15.50;;;7.70;62.10;;;;;;6078632;23;115140;-83
2022/12/30 13:11:57;;;;;;;23.90;15.23;;;7.70;62.10;;;;;;6078679;23;115053;-82
2022/12/30 13:14:33;;;;;;;26.40;15.95;;;7.70;62.10;;;;;;6059501;23;114604;-81
2022/12/30 13:17:05;;;;;;;25.55;16.45;;;7.70;62.30;;;;;;6056034;23;117914;-82
2022/12/30 13:19:34;;;;;;;21.30;14.32;;;7.70;62.30;;;;;;6055322;23;117343;-82
2022/12/30 13:22:07;;;;;;;22.33;15.48;;;7.70;62.20;;;;;;6078592;23;115231;-82
2022/12/30 13:24:43;;;;;;;24.27;15.80;;;7.70;62.20;;;;;;6056478;23;115796;-84
2022/12/30 13:27:43;;;;;;;21.63;15.40;;;7.70;62.20;;;;;;6053243;23;118664;-83
2022/12/30 13:30:19;;;;;;;24.48;16.55;;;7.80;62.00;;;;;;6021499;23;115276;-83
2022/12/30 13:33:38;;;;;;;20.95;15.48;;;7.80;62.10;;;;;;6032861;23;115171;-83
2022/12/30 13:36:17;;;;;;;24.83;16.15;;;7.80;62.10;;;;;;6090644;23;116057;-82
2022/12/30 13:39:12;;;;;;;22.88;15.93;;;7.70;62.10;;;;;;6062074;23;115431;-82
2022/12/30 13:42:07;;;;;;;22.85;15.95;;;7.70;62.20;;;;;;6110471;22;114839;-83
2022/12/30 13:44:35;;;;;;;;;;;7.80;62.20;;;;;;6085213;23;114470;-84
2022/12/30 13:47:03;;;;;;;20.45;13.93;;;7.60;62.20;;;;;;6086873;23;114591;-82
2022/12/30 13:49:34;;;;;;;19.95;13.55;;;7.60;62.40;;;;;;6085334;23;114933;-83
2022/12/30 13:52:24;;;;;;;22.52;15.18;;;7.70;62.40;;;;;;6060765;23;114576;-83
2022/12/30 13:55:00;;;;;;;21.55;14.25;;;7.70;62.40;;;;;;6043329;23;114521;-84
2022/12/30 13:57:41;;;;;;;20.95;14.50;;;7.60;62.50;;;;;;6038470;23;114634;-84
2022/12/30 14:00:14;;;;;;;20.10;14.13;;;7.70;62.40;;;;;;6013407;23;115063;-82
2022/12/30 14:03:00;;;;;;;21.10;14.83;;;7.60;62.40;;;;;;6110660;23;114710;-82